<?xml version="1.0" encoding="UTF-8" standalone="no" ?>
<gpx xmlns="http://www.topografix.com/GPX/1/1" xmlns:xsi="http://www.w3.org/2001/XMLSchema-instance" xsi:schemaLocation="http://www.topografix.com/GPX/1/1 http://www.topografix.com/GPX/1/1/gpx.xsd" version="1.1" creator="VisuGPX - https://www.visugpx.com">
  <metadata>
    <name>GR8S2_BarreMontsLesSables</name>
    <desc><![CDATA[gnerando idor: 12420232_12420290_12420300_12420307]]></desc>
  </metadata>
  <trk>
    <name><![CDATA[GR8S2J2_MarinesPetitPont_19.2km-12420290]]></name>
    <extensions>
      <line xmlns="http://www.topografix.com/GPX/gpx_style/0/2">
        <color>00FF00</color>
        <width>4</width>
      </line>
    </extensions>
    <trkseg>
      <trkpt lat="46.75121" lon="-2.01614">
        <ele>4</ele>
        <time>2023-10-30T14:32:57Z</time>
      </trkpt>
      <trkpt lat="46.7505" lon="-2.01535">
        <ele>4</ele>
        <time>2023-10-30T14:34:56Z</time>
      </trkpt>
      <trkpt lat="46.74932" lon="-2.01353">
        <ele>7</ele>
        <time>2023-10-30T14:38:45Z</time>
      </trkpt>
      <trkpt lat="46.74647" lon="-2.01177">
        <ele>8</ele>
        <time>2023-10-30T14:45:38Z</time>
      </trkpt>
      <trkpt lat="46.74506" lon="-2.01005">
        <ele>5</ele>
        <time>2023-10-30T14:49:43Z</time>
      </trkpt>
      <trkpt lat="46.74344" lon="-2.00863">
        <ele>3</ele>
        <time>2023-10-30T14:53:56Z</time>
      </trkpt>
      <trkpt lat="46.74244" lon="-2.00711">
        <ele>2</ele>
        <time>2023-10-30T14:57:08Z</time>
      </trkpt>
      <trkpt lat="46.74247" lon="-2.0057">
        <ele>3</ele>
        <time>2023-10-30T14:59:17Z</time>
      </trkpt>
      <trkpt lat="46.7426" lon="-2.00544">
        <ele>3</ele>
        <time>2023-10-30T14:59:47Z</time>
      </trkpt>
      <trkpt lat="46.74335" lon="-2.00548">
        <ele>3</ele>
        <time>2023-10-30T15:01:27Z</time>
      </trkpt>
      <trkpt lat="46.74399" lon="-2.00492">
        <ele>1</ele>
        <time>2023-10-30T15:03:06Z</time>
      </trkpt>
      <trkpt lat="46.74555" lon="-2.00276">
        <ele>2</ele>
        <time>2023-10-30T15:07:53Z</time>
      </trkpt>
      <trkpt lat="46.74715" lon="-2.00237">
        <ele>3</ele>
        <time>2023-10-30T15:11:30Z</time>
      </trkpt>
      <trkpt lat="46.74747" lon="-2.00198">
        <ele>3</ele>
        <time>2023-10-30T15:12:26Z</time>
      </trkpt>
      <trkpt lat="46.74865" lon="-1.99984">
        <ele>3</ele>
        <time>2023-10-30T15:16:37Z</time>
      </trkpt>
      <trkpt lat="46.7489" lon="-1.99902">
        <ele>2</ele>
        <time>2023-10-30T15:17:59Z</time>
      </trkpt>
      <trkpt lat="46.74894" lon="-1.99821">
        <ele>2</ele>
        <time>2023-10-30T15:19:13Z</time>
      </trkpt>
      <trkpt lat="46.74838" lon="-1.99486">
        <ele>4</ele>
        <time>2023-10-30T15:24:28Z</time>
      </trkpt>
      <trkpt lat="46.74791" lon="-1.99471">
        <ele>4</ele>
        <time>2023-10-30T15:25:33Z</time>
      </trkpt>
      <trkpt lat="46.74769" lon="-1.99419">
        <ele>3</ele>
        <time>2023-10-30T15:26:28Z</time>
      </trkpt>
      <trkpt lat="46.74696" lon="-1.99381">
        <ele>2</ele>
        <time>2023-10-30T15:28:12Z</time>
      </trkpt>
      <trkpt lat="46.74632" lon="-1.9934">
        <ele>2</ele>
        <time>2023-10-30T15:29:45Z</time>
      </trkpt>
      <trkpt lat="46.74582" lon="-1.99241">
        <ele>1</ele>
        <time>2023-10-30T15:31:38Z</time>
      </trkpt>
      <trkpt lat="46.74547" lon="-1.99224">
        <ele>2</ele>
        <time>2023-10-30T15:32:27Z</time>
      </trkpt>
      <trkpt lat="46.74434" lon="-1.99209">
        <ele>4</ele>
        <time>2023-10-30T15:34:58Z</time>
      </trkpt>
      <trkpt lat="46.7434" lon="-1.9914">
        <ele>4</ele>
        <time>2023-10-30T15:37:19Z</time>
      </trkpt>
      <trkpt lat="46.74431" lon="-1.98997">
        <ele>4</ele>
        <time>2023-10-30T15:40:17Z</time>
      </trkpt>
      <trkpt lat="46.7443" lon="-1.98943">
        <ele>4</ele>
        <time>2023-10-30T15:41:07Z</time>
      </trkpt>
      <trkpt lat="46.74359" lon="-1.98842">
        <ele>4</ele>
        <time>2023-10-30T15:43:19Z</time>
      </trkpt>
      <trkpt lat="46.74291" lon="-1.98801">
        <ele>4</ele>
        <time>2023-10-30T15:44:57Z</time>
      </trkpt>
      <trkpt lat="46.74227" lon="-1.98793">
        <ele>4</ele>
        <time>2023-10-30T15:46:23Z</time>
      </trkpt>
      <trkpt lat="46.74109" lon="-1.98733">
        <ele>3</ele>
        <time>2023-10-30T15:49:09Z</time>
      </trkpt>
      <trkpt lat="46.74137" lon="-1.98827">
        <ele>4</ele>
        <time>2023-10-30T15:50:43Z</time>
      </trkpt>
      <trkpt lat="46.74008" lon="-1.98941">
        <ele>5</ele>
        <time>2023-10-30T15:54:04Z</time>
      </trkpt>
      <trkpt lat="46.73972" lon="-1.98857">
        <ele>5</ele>
        <time>2023-10-30T15:55:35Z</time>
      </trkpt>
      <trkpt lat="46.73944" lon="-1.9884">
        <ele>5</ele>
        <time>2023-10-30T15:56:16Z</time>
      </trkpt>
      <trkpt lat="46.73881" lon="-1.98737">
        <ele>5</ele>
        <time>2023-10-30T15:58:22Z</time>
      </trkpt>
      <trkpt lat="46.73835" lon="-1.98752">
        <ele>5</ele>
        <time>2023-10-30T15:59:25Z</time>
      </trkpt>
      <trkpt lat="46.73799" lon="-1.98816">
        <ele>6</ele>
        <time>2023-10-30T16:00:40Z</time>
      </trkpt>
      <trkpt lat="46.73733" lon="-1.98827">
        <ele>7</ele>
        <time>2023-10-30T16:02:09Z</time>
      </trkpt>
      <trkpt lat="46.73727" lon="-1.98791">
        <ele>6</ele>
        <time>2023-10-30T16:02:43Z</time>
      </trkpt>
      <trkpt lat="46.73681" lon="-1.9873">
        <ele>6</ele>
        <time>2023-10-30T16:04:06Z</time>
      </trkpt>
      <trkpt lat="46.73671" lon="-1.98655">
        <ele>7</ele>
        <time>2023-10-30T16:05:16Z</time>
      </trkpt>
      <trkpt lat="46.7369" lon="-1.98555">
        <ele>6</ele>
        <time>2023-10-30T16:06:51Z</time>
      </trkpt>
      <trkpt lat="46.73619" lon="-1.98477">
        <ele>6</ele>
        <time>2023-10-30T16:08:49Z</time>
      </trkpt>
      <trkpt lat="46.73571" lon="-1.9851">
        <ele>5</ele>
        <time>2023-10-30T16:10:00Z</time>
      </trkpt>
      <trkpt lat="46.73505" lon="-1.98359">
        <ele>7</ele>
        <time>2023-10-30T16:12:44Z</time>
      </trkpt>
      <trkpt lat="46.73408" lon="-1.98267">
        <ele>12</ele>
        <time>2023-10-30T16:15:18Z</time>
      </trkpt>
      <trkpt lat="46.73331" lon="-1.98239">
        <ele>12</ele>
        <time>2023-10-30T16:17:04Z</time>
      </trkpt>
      <trkpt lat="46.73224" lon="-1.98177">
        <ele>16</ele>
        <time>2023-10-30T16:19:38Z</time>
      </trkpt>
      <trkpt lat="46.73125" lon="-1.97971">
        <ele>13</ele>
        <time>2023-10-30T16:23:28Z</time>
      </trkpt>
      <trkpt lat="46.73034" lon="-1.97943">
        <ele>13</ele>
        <time>2023-10-30T16:25:32Z</time>
      </trkpt>
      <trkpt lat="46.72682" lon="-1.97525">
        <ele>9</ele>
        <time>2023-10-30T16:35:38Z</time>
      </trkpt>
      <trkpt lat="46.72612" lon="-1.97505">
        <ele>11</ele>
        <time>2023-10-30T16:37:13Z</time>
      </trkpt>
      <trkpt lat="46.72534" lon="-1.9746">
        <ele>12</ele>
        <time>2023-10-30T16:39:05Z</time>
      </trkpt>
      <trkpt lat="46.72472" lon="-1.97389">
        <ele>11</ele>
        <time>2023-10-30T16:40:50Z</time>
      </trkpt>
      <trkpt lat="46.72343" lon="-1.97096">
        <ele>10</ele>
        <time>2023-10-30T16:46:09Z</time>
      </trkpt>
      <trkpt lat="46.72206" lon="-1.96825">
        <ele>14</ele>
        <time>2023-10-30T16:51:17Z</time>
      </trkpt>
      <trkpt lat="46.71988" lon="-1.97115">
        <ele>11</ele>
        <time>2023-10-30T16:57:50Z</time>
      </trkpt>
      <trkpt lat="46.71863" lon="-1.9725">
        <ele>11</ele>
        <time>2023-10-30T17:01:18Z</time>
      </trkpt>
      <trkpt lat="46.7176" lon="-1.9749">
        <ele>9</ele>
        <time>2023-10-30T17:05:37Z</time>
      </trkpt>
      <trkpt lat="46.71732" lon="-1.97576">
        <ele>8</ele>
        <time>2023-10-30T17:07:04Z</time>
      </trkpt>
      <trkpt lat="46.71598" lon="-1.97518">
        <ele>11</ele>
        <time>2023-10-30T17:10:11Z</time>
      </trkpt>
      <trkpt lat="46.71556" lon="-1.9755">
        <ele>11</ele>
        <time>2023-10-30T17:11:14Z</time>
      </trkpt>
      <trkpt lat="46.71501" lon="-1.97567">
        <ele>10</ele>
        <time>2023-10-30T17:12:29Z</time>
      </trkpt>
      <trkpt lat="46.71473" lon="-1.97606">
        <ele>9</ele>
        <time>2023-10-30T17:13:20Z</time>
      </trkpt>
      <trkpt lat="46.71441" lon="-1.97763">
        <ele>5</ele>
        <time>2023-10-30T17:15:50Z</time>
      </trkpt>
      <trkpt lat="46.71267" lon="-1.97857">
        <ele>4</ele>
        <time>2023-10-30T17:19:58Z</time>
      </trkpt>
      <trkpt lat="46.71161" lon="-1.9796">
        <ele>6</ele>
        <time>2023-10-30T17:22:48Z</time>
      </trkpt>
      <trkpt lat="46.71157" lon="-1.97982">
        <ele>5</ele>
        <time>2023-10-30T17:23:09Z</time>
      </trkpt>
      <trkpt lat="46.7108" lon="-1.98035">
        <ele>5</ele>
        <time>2023-10-30T17:25:02Z</time>
      </trkpt>
      <trkpt lat="46.71022" lon="-1.98046">
        <ele>5</ele>
        <time>2023-10-30T17:26:20Z</time>
      </trkpt>
      <trkpt lat="46.71005" lon="-1.97943">
        <ele>9</ele>
        <time>2023-10-30T17:27:57Z</time>
      </trkpt>
      <trkpt lat="46.70949" lon="-1.97969">
        <ele>9</ele>
        <time>2023-10-30T17:29:16Z</time>
      </trkpt>
      <trkpt lat="46.70755" lon="-1.97907">
        <ele>6</ele>
        <time>2023-10-30T17:33:41Z</time>
      </trkpt>
      <trkpt lat="46.70657" lon="-1.97907">
        <ele>5</ele>
        <time>2023-10-30T17:35:52Z</time>
      </trkpt>
      <trkpt lat="46.70542" lon="-1.97928">
        <ele>4</ele>
        <time>2023-10-30T17:38:26Z</time>
      </trkpt>
      <trkpt lat="46.70483" lon="-1.97907">
        <ele>5</ele>
        <time>2023-10-30T17:39:47Z</time>
      </trkpt>
      <trkpt lat="46.70414" lon="-1.97853">
        <ele>7</ele>
        <time>2023-10-30T17:41:32Z</time>
      </trkpt>
      <trkpt lat="46.70206" lon="-1.97636">
        <ele>10</ele>
        <time>2023-10-30T17:47:13Z</time>
      </trkpt>
      <trkpt lat="46.69997" lon="-1.97351">
        <ele>12</ele>
        <time>2023-10-30T17:53:35Z</time>
      </trkpt>
      <trkpt lat="46.69899" lon="-1.97263">
        <ele>8</ele>
        <time>2023-10-30T17:56:09Z</time>
      </trkpt>
      <trkpt lat="46.6979" lon="-1.97183">
        <ele>9</ele>
        <time>2023-10-30T17:58:51Z</time>
      </trkpt>
      <trkpt lat="46.69362" lon="-1.96741">
        <ele>9</ele>
        <time>2023-10-30T18:10:31Z</time>
      </trkpt>
      <trkpt lat="46.69326" lon="-1.96675">
        <ele>10</ele>
        <time>2023-10-30T18:11:49Z</time>
      </trkpt>
      <trkpt lat="46.69307" lon="-1.96572">
        <ele>11</ele>
        <time>2023-10-30T18:13:26Z</time>
      </trkpt>
      <trkpt lat="46.69326" lon="-1.96297">
        <ele>14</ele>
        <time>2023-10-30T18:17:39Z</time>
      </trkpt>
      <trkpt lat="46.69323" lon="-1.96158">
        <ele>10</ele>
        <time>2023-10-30T18:19:46Z</time>
      </trkpt>
      <trkpt lat="46.6935" lon="-1.96111">
        <ele>6</ele>
        <time>2023-10-30T18:20:43Z</time>
      </trkpt>
      <trkpt lat="46.69421" lon="-1.96046">
        <ele>4</ele>
        <time>2023-10-30T18:22:34Z</time>
      </trkpt>
      <trkpt lat="46.6944" lon="-1.95995">
        <ele>3</ele>
        <time>2023-10-30T18:23:28Z</time>
      </trkpt>
      <trkpt lat="46.69469" lon="-1.95761">
        <ele>7</ele>
        <time>2023-10-30T18:27:05Z</time>
      </trkpt>
      <trkpt lat="46.69501" lon="-1.95591">
        <ele>8</ele>
        <time>2023-10-30T18:29:47Z</time>
      </trkpt>
      <trkpt lat="46.69557" lon="-1.95437">
        <ele>8</ele>
        <time>2023-10-30T18:32:26Z</time>
      </trkpt>
      <trkpt lat="46.69538" lon="-1.95387">
        <ele>7</ele>
        <time>2023-10-30T18:33:18Z</time>
      </trkpt>
      <trkpt lat="46.69529" lon="-1.9528">
        <ele>6</ele>
        <time>2023-10-30T18:34:57Z</time>
      </trkpt>
      <trkpt lat="46.6959" lon="-1.95203">
        <ele>8</ele>
        <time>2023-10-30T18:36:45Z</time>
      </trkpt>
      <trkpt lat="46.69687" lon="-1.94993">
        <ele>7</ele>
        <time>2023-10-30T18:40:36Z</time>
      </trkpt>
      <trkpt lat="46.69682" lon="-1.94937">
        <ele>5</ele>
        <time>2023-10-30T18:41:28Z</time>
      </trkpt>
      <trkpt lat="46.69706" lon="-1.94872">
        <ele>4</ele>
        <time>2023-10-30T18:42:36Z</time>
      </trkpt>
      <trkpt lat="46.69746" lon="-1.94913">
        <ele>6</ele>
        <time>2023-10-30T18:43:41Z</time>
      </trkpt>
      <trkpt lat="46.69772" lon="-1.94875">
        <ele>5</ele>
        <time>2023-10-30T18:44:30Z</time>
      </trkpt>
      <trkpt lat="46.69809" lon="-1.94739">
        <ele>4</ele>
        <time>2023-10-30T18:46:44Z</time>
      </trkpt>
      <trkpt lat="46.69733" lon="-1.94491">
        <ele>2</ele>
        <time>2023-10-30T18:50:53Z</time>
      </trkpt>
      <trkpt lat="46.69622" lon="-1.94274">
        <ele>2</ele>
        <time>2023-10-30T18:55:00Z</time>
      </trkpt>
      <trkpt lat="46.69641" lon="-1.94242">
        <ele>3</ele>
        <time>2023-10-30T18:55:39Z</time>
      </trkpt>
      <trkpt lat="46.69585" lon="-1.94046">
        <ele>3</ele>
        <time>2023-10-30T18:58:53Z</time>
      </trkpt>
      <trkpt lat="46.69446" lon="-1.93731">
        <ele>3</ele>
        <time>2023-10-30T19:04:36Z</time>
      </trkpt>
      <trkpt lat="46.69425" lon="-1.93617">
        <ele>2</ele>
        <time>2023-10-30T19:06:24Z</time>
      </trkpt>
      <trkpt lat="46.69472" lon="-1.93583">
        <ele>2</ele>
        <time>2023-10-30T19:07:34Z</time>
      </trkpt>
      <trkpt lat="46.69528" lon="-1.93576">
        <ele>3</ele>
        <time>2023-10-30T19:08:49Z</time>
      </trkpt>
      <trkpt lat="46.69594" lon="-1.93598">
        <ele>4</ele>
        <time>2023-10-30T19:10:20Z</time>
      </trkpt>
      <trkpt lat="46.69619" lon="-1.93443">
        <ele>4</ele>
        <time>2023-10-30T19:12:45Z</time>
      </trkpt>
      <trkpt lat="46.69524" lon="-1.9342">
        <ele>3</ele>
        <time>2023-10-30T19:14:54Z</time>
      </trkpt>
      <trkpt lat="46.69363" lon="-1.93422">
        <ele>3</ele>
        <time>2023-10-30T19:18:29Z</time>
      </trkpt>
      <trkpt lat="46.69161" lon="-1.93336">
        <ele>3</ele>
        <time>2023-10-30T19:23:10Z</time>
      </trkpt>
      <trkpt lat="46.69157" lon="-1.93381">
        <ele>4</ele>
        <time>2023-10-30T19:23:51Z</time>
      </trkpt>
      <trkpt lat="46.69111" lon="-1.93394">
        <ele>3</ele>
        <time>2023-10-30T19:24:54Z</time>
      </trkpt>
      <trkpt lat="46.69066" lon="-1.93315">
        <ele>3</ele>
        <time>2023-10-30T19:26:28Z</time>
      </trkpt>
      <trkpt lat="46.68989" lon="-1.9325">
        <ele>1</ele>
        <time>2023-10-30T19:28:26Z</time>
      </trkpt>
      <trkpt lat="46.68935" lon="-1.93252">
        <ele>1</ele>
        <time>2023-10-30T19:29:38Z</time>
      </trkpt>
      <trkpt lat="46.68792" lon="-1.9328">
        <ele>4</ele>
        <time>2023-10-30T19:32:51Z</time>
      </trkpt>
      <trkpt lat="46.68729" lon="-1.93276">
        <ele>4</ele>
        <time>2023-10-30T19:34:15Z</time>
      </trkpt>
      <trkpt lat="46.68636" lon="-1.93252">
        <ele>5</ele>
        <time>2023-10-30T19:36:21Z</time>
      </trkpt>
      <trkpt lat="46.68489" lon="-1.93096">
        <ele>3</ele>
        <time>2023-10-30T19:40:24Z</time>
      </trkpt>
      <trkpt lat="46.68401" lon="-1.93025">
        <ele>3</ele>
        <time>2023-10-30T19:42:38Z</time>
      </trkpt>
      <trkpt lat="46.68303" lon="-1.92971">
        <ele>2</ele>
        <time>2023-10-30T19:44:58Z</time>
      </trkpt>
      <trkpt lat="46.68255" lon="-1.92911">
        <ele>1</ele>
        <time>2023-10-30T19:46:22Z</time>
      </trkpt>
      <trkpt lat="46.68219" lon="-1.92808">
        <ele>3</ele>
        <time>2023-10-30T19:48:08Z</time>
      </trkpt>
      <trkpt lat="46.68183" lon="-1.92763">
        <ele>3</ele>
        <time>2023-10-30T19:49:11Z</time>
      </trkpt>
      <trkpt lat="46.68116" lon="-1.92722">
        <ele>2</ele>
        <time>2023-10-30T19:50:48Z</time>
      </trkpt>
      <trkpt lat="46.68177" lon="-1.92606">
        <ele>5</ele>
        <time>2023-10-30T19:53:02Z</time>
      </trkpt>
      <trkpt lat="46.68115" lon="-1.92512">
        <ele>6</ele>
        <time>2023-10-30T19:55:02Z</time>
      </trkpt>
      <trkpt lat="46.68053" lon="-1.92373">
        <ele>6</ele>
        <time>2023-10-30T19:57:33Z</time>
      </trkpt>
      <trkpt lat="46.67947" lon="-1.92261">
        <ele>3</ele>
        <time>2023-10-30T20:00:28Z</time>
      </trkpt>
      <trkpt lat="46.67871" lon="-1.92201">
        <ele>3</ele>
        <time>2023-10-30T20:02:23Z</time>
      </trkpt>
      <trkpt lat="46.67822" lon="-1.92062">
        <ele>3</ele>
        <time>2023-10-30T20:04:46Z</time>
      </trkpt>
      <trkpt lat="46.67685" lon="-1.91843">
        <ele>3</ele>
        <time>2023-10-30T20:09:18Z</time>
      </trkpt>
      <trkpt lat="46.67482" lon="-1.91401">
        <ele>4</ele>
        <time>2023-10-30T20:17:25Z</time>
      </trkpt>
      <trkpt lat="46.67402" lon="-1.91411">
        <ele>5</ele>
        <time>2023-10-30T20:19:12Z</time>
      </trkpt>
      <trkpt lat="46.67307" lon="-1.91248">
        <ele>10</ele>
        <time>2023-10-30T20:22:28Z</time>
      </trkpt>
      <trkpt lat="46.67233" lon="-1.9109">
        <ele>10</ele>
        <time>2023-10-30T20:25:23Z</time>
      </trkpt>
      <trkpt lat="46.67142" lon="-1.90937">
        <ele>7</ele>
        <time>2023-10-30T20:28:28Z</time>
      </trkpt>
      <trkpt lat="46.67099" lon="-1.90896">
        <ele>6</ele>
        <time>2023-10-30T20:29:37Z</time>
      </trkpt>
      <trkpt lat="46.66996" lon="-1.9086">
        <ele>8</ele>
        <time>2023-10-30T20:31:58Z</time>
      </trkpt>
      <trkpt lat="46.66902" lon="-1.90877">
        <ele>6</ele>
        <time>2023-10-30T20:34:05Z</time>
      </trkpt>
      <trkpt lat="46.66831" lon="-1.90935">
        <ele>7</ele>
        <time>2023-10-30T20:35:53Z</time>
      </trkpt>
      <trkpt lat="46.66757" lon="-1.91046">
        <ele>7</ele>
        <time>2023-10-30T20:38:15Z</time>
      </trkpt>
      <trkpt lat="46.66696" lon="-1.91126">
        <ele>7</ele>
        <time>2023-10-30T20:40:05Z</time>
      </trkpt>
      <trkpt lat="46.66647" lon="-1.91132">
        <ele>6</ele>
        <time>2023-10-30T20:41:10Z</time>
      </trkpt>
      <trkpt lat="46.66467" lon="-1.90911">
        <ele>5</ele>
        <time>2023-10-30T20:46:24Z</time>
      </trkpt>
      <trkpt lat="46.66438" lon="-1.90896">
        <ele>4</ele>
        <time>2023-10-30T20:47:05Z</time>
      </trkpt>
      <trkpt lat="46.66395" lon="-1.90798">
        <ele>4</ele>
        <time>2023-10-30T20:48:52Z</time>
      </trkpt>
      <trkpt lat="46.66353" lon="-1.90746">
        <ele>4</ele>
        <time>2023-10-30T20:50:05Z</time>
      </trkpt>
      <trkpt lat="46.66308" lon="-1.90718">
        <ele>3</ele>
        <time>2023-10-30T20:51:11Z</time>
      </trkpt>
      <trkpt lat="46.66245" lon="-1.90613">
        <ele>3</ele>
        <time>2023-10-30T20:53:18Z</time>
      </trkpt>
      <trkpt lat="46.66174" lon="-1.906">
        <ele>5</ele>
        <time>2023-10-30T20:54:54Z</time>
      </trkpt>
      <trkpt lat="46.66133" lon="-1.90577">
        <ele>4</ele>
        <time>2023-10-30T20:55:53Z</time>
      </trkpt>
    </trkseg>
  </trk>
</gpx>